Time;durP1;ratioP1;P1;durP2;ratioP2;P2;SDS_P1;SDS_P2;PMS_P1;PMS_P2;Temp;Humidity;BMP_temperature;BMP_pressure;BME280_temperature;BME280_humidity;BME280_pressure;Samples;Min_cycle;Max_cycle;Signal;HPM_P1;HPM_P2
2024/02/24 00:00:27;;;;;;;5.30;2.58;;;;;;;6.64;100.00;99297.34;5101707;28;20062;-68
2024/02/24 00:03:15;;;;;;;5.45;2.55;;;;;;;6.61;100.00;99306.84;5101004;28;20099;-67
2024/02/24 00:06:06;;;;;;;5.68;3.00;;;;;;;6.61;100.00;99298.72;5097220;28;20406;-67
2024/02/24 00:08:54;;;;;;;5.40;2.70;;;;;;;6.62;100.00;99305.78;5112017;28;20047;-67
2024/02/24 00:11:42;;;;;;;6.35;3.15;;;;;;;6.65;100.00;99302.50;5080615;28;20047;-68
2024/02/24 00:14:30;;;;;;;7.88;3.83;;;;;;;6.64;100.00;99298.19;5112643;28;20051;-67
2024/02/24 00:17:18;;;;;;;5.38;2.67;;;;;;;6.64;100.00;99300.91;5077260;28;20059;-67
2024/02/24 00:20:10;;;;;;;5.22;2.70;;;;;;;6.65;100.00;99294.38;5091004;28;20059;-68
2024/02/24 00:22:59;;;;;;;6.53;2.70;;;;;;;6.64;100.00;99297.34;5085536;28;20070;-67
2024/02/24 00:25:47;;;;;;;4.43;2.47;;;;;;;6.60;100.00;99297.91;5094079;28;20048;-66
2024/02/24 00:28:35;;;;;;;7.20;3.08;;;;;;;6.58;100.00;99300.09;5077849;28;20250;-66
2024/02/24 00:31:23;;;;;;;6.78;2.83;;;;;;;6.58;100.00;99296.59;5062714;28;20052;-66
2024/02/24 00:34:11;;;;;;;3.28;2.22;;;;;;;6.55;100.00;99306.06;5104631;28;20130;-67
2024/02/24 00:36:59;;;;;;;7.00;2.88;;;;;;;6.53;100.00;99296.63;5076609;28;20056;-67
2024/02/24 00:39:47;;;;;;;7.07;2.88;;;;;;;6.49;100.00;99296.34;5076842;28;20443;-67
2024/02/24 00:42:35;;;;;;;6.45;2.40;;;;;;;6.47;100.00;99297.72;5082329;28;20127;-67
2024/02/24 00:45:23;;;;;;;5.75;2.40;;;;;;;6.39;100.00;99294.50;5084745;28;20040;-67
2024/02/24 00:48:11;;;;;;;4.57;2.53;;;;;;;6.40;100.00;99298.84;5096891;28;20403;-68
2024/02/24 00:50:59;;;;;;;4.22;2.35;;;;;;;6.39;100.00;99297.22;5096040;28;20048;-68
2024/02/24 00:53:47;;;;;;;6.00;2.15;;;;;;;6.37;100.00;99304.00;5089720;28;20050;-68
2024/02/24 00:56:38;;;;;;;4.78;2.60;;;;;;;6.37;100.00;99302.13;5086103;28;20050;-68
2024/02/24 00:59:26;;;;;;;4.43;2.28;;;;;;;6.37;100.00;99296.72;5101888;28;20048;-68
2024/02/24 01:02:14;;;;;;;5.32;2.42;;;;;;;6.37;100.00;99304.00;5100908;28;20052;-68
2024/02/24 01:05:03;;;;;;;3.72;2.30;;;;;;;6.39;100.00;99302.63;5099121;28;20047;-67
2024/02/24 01:07:55;;;;;;;5.13;2.63;;;;;;;6.43;100.00;99307.50;5098779;28;20496;-67
2024/02/24 01:10:44;;;;;;;5.45;2.35;;;;;;;6.43;100.00;99296.69;5099644;28;20044;-68
2024/02/24 01:13:32;;;;;;;4.00;2.45;;;;;;;6.42;100.00;99306.66;5113725;27;20055;-68
2024/02/24 01:16:20;;;;;;;2.72;1.83;;;;;;;6.35;100.00;99307.00;5100148;28;20051;-67
2024/02/24 01:19:08;;;;;;;4.57;2.30;;;;;;;6.28;100.00;99314.59;5082256;27;20488;-68
2024/02/24 01:21:56;;;;;;;2.95;2.28;;;;;;;6.30;100.00;99314.28;5107612;27;20043;-68
2024/02/24 01:24:45;;;;;;;3.58;2.20;;;;;;;6.30;100.00;99314.28;5081900;28;20098;-68
2024/02/24 01:27:33;;;;;;;3.15;1.95;;;;;;;6.26;100.00;99308.66;5095729;27;20127;-68
2024/02/24 01:30:22;;;;;;;6.10;2.40;;;;;;;6.27;100.00;99307.53;5094985;28;20506;-68
2024/02/24 01:33:10;;;;;;;4.32;2.38;;;;;;;6.28;100.00;99308.38;5094410;28;20082;-68
2024/02/24 01:35:59;;;;;;;4.32;2.50;;;;;;;6.28;100.00;99309.19;5093215;28;20050;-67
2024/02/24 01:38:47;;;;;;;3.13;2.03;;;;;;;6.30;100.00;99315.13;5100439;28;20036;-67
2024/02/24 01:41:35;;;;;;;5.65;2.55;;;;;;;6.32;100.00;99307.53;5080885;28;20044;-68
2024/02/24 01:44:23;;;;;;;5.07;2.40;;;;;;;6.32;100.00;99307.53;5095050;28;20090;-68
2024/02/24 01:47:11;;;;;;;4.93;2.40;;;;;;;6.30;100.00;99307.00;5097463;28;20044;-67
2024/02/24 01:49:59;;;;;;;4.03;2.25;;;;;;;6.24;100.00;99310.81;5100438;28;20043;-67
2024/02/24 01:52:49;;;;;;;6.28;2.45;;;;;;;6.20;100.00;99309.75;5100404;28;20047;-67
2024/02/24 01:55:37;;;;;;;4.95;2.30;;;;;;;6.23;100.00;99320.03;5098417;28;20047;-67
2024/02/24 01:58:28;;;;;;;3.80;2.20;;;;;;;6.24;100.00;99316.22;5088584;28;20082;-67
2024/02/24 02:01:17;;;;;;;4.15;2.10;;;;;;;6.23;100.00;99325.44;5093283;27;20031;-67
2024/02/24 02:04:05;;;;;;;3.25;2.10;;;;;;;6.16;100.00;99322.22;5134257;27;20043;-67
2024/02/24 02:06:53;;;;;;;4.72;2.38;;;;;;;6.18;100.00;99322.72;5077919;28;20059;-67
2024/02/24 02:09:57;;;;;;;3.65;2.25;;;;;;;6.21;100.00;99316.78;5079565;28;20492;-67
2024/02/24 02:12:45;;;;;;;4.05;2.08;;;;;;;6.23;100.00;99319.19;5065871;28;20047;-67
2024/02/24 02:15:33;;;;;;;3.55;2.13;;;;;;;6.26;100.00;99322.16;5109510;27;20144;-67
2024/02/24 02:18:21;;;;;;;3.25;2.17;;;;;;;6.27;100.00;99321.06;5094089;28;20249;-67
2024/02/24 02:21:10;;;;;;;3.08;1.90;;;;;;;6.29;100.00;99335.13;5094212;28;20051;-67
2024/02/24 02:23:58;;;;;;;3.60;2.17;;;;;;;6.31;100.00;99338.38;5105742;28;20051;-67
2024/02/24 02:26:46;;;;;;;3.92;2.13;;;;;;;6.30;100.00;99331.34;5098387;28;20058;-67
2024/02/24 02:29:34;;;;;;;3.53;1.90;;;;;;;6.31;100.00;99338.38;5084570;28;20063;-67
2024/02/24 02:32:22;;;;;;;2.50;1.88;;;;;;;6.31;100.00;99337.56;5111629;28;20051;-67
2024/02/24 02:35:11;;;;;;;3.45;1.75;;;;;;;6.31;100.00;99337.56;5112939;28;20048;-67
2024/02/24 02:37:59;;;;;;;1.98;1.75;;;;;;;6.32;100.00;99344.59;5112697;28;20051;-67
2024/02/24 02:40:47;;;;;;;2.40;1.65;;;;;;;6.33;100.00;99347.03;5112816;28;20050;-67
2024/02/24 02:43:35;;;;;;;3.38;1.98;;;;;;;6.32;100.00;99339.97;5098392;28;20427;-68
2024/02/24 02:46:23;;;;;;;3.67;2.13;;;;;;;6.33;100.00;99347.03;5110067;28;20126;-67
2024/02/24 02:49:11;;;;;;;5.68;1.90;;;;;;;6.32;100.00;99344.59;5111927;28;20122;-68
2024/02/24 02:51:59;;;;;;;3.42;1.90;;;;;;;6.33;100.00;99349.72;5131121;27;20427;-67
2024/02/24 02:54:47;;;;;;;4.45;1.75;;;;;;;6.32;100.00;99350.81;5119118;27;20046;-67
2024/02/24 02:57:35;;;;;;;2.15;1.80;;;;;;;6.31;100.00;99353.81;5079258;28;20508;-67
2024/02/24 03:00:24;;;;;;;3.75;1.77;;;;;;;6.33;100.00;99363.25;5083910;27;20126;-66
2024/02/24 03:03:12;;;;;;;3.40;1.80;;;;;;;6.31;100.00;99360.00;5118798;27;20395;-67
2024/02/24 03:06:01;;;;;;;2.35;1.55;;;;;;;6.30;100.00;99353.00;5127646;27;20057;-68
2024/02/24 03:08:50;;;;;;;4.03;1.70;;;;;;;6.31;100.00;99354.59;5098002;28;20032;-67
2024/02/24 03:11:41;;;;;;;4.43;2.00;;;;;;;6.33;100.00;99347.03;5112795;28;20407;-67
2024/02/24 03:14:29;;;;;;;3.95;1.92;;;;;;;6.33;100.00;99349.72;5112210;28;20044;-67
2024/02/24 03:17:17;;;;;;;2.63;1.52;;;;;;;6.34;100.00;99345.94;5110057;27;20051;-67
2024/02/24 03:20:08;;;;;;;3.95;2.20;;;;;;;6.35;100.00;99344.88;5098031;28;20044;-67
2024/02/24 03:22:56;;;;;;;2.22;1.77;;;;;;;6.34;100.00;99351.34;5113484;27;20040;-66
2024/02/24 03:25:44;;;;;;;3.13;1.67;;;;;;;6.31;100.00;99354.59;5111450;28;20047;-67
2024/02/24 03:28:32;;;;;;;3.47;1.92;;;;;;;6.29;100.00;99354.06;5110779;28;20131;-66
2024/02/24 03:31:20;;;;;;;3.05;1.95;;;;;;;6.28;100.00;99349.75;5114464;28;20101;-67
2024/02/24 03:34:08;;;;;;;1.83;1.50;;;;;;;6.28;100.00;99347.06;5097817;28;20126;-66
2024/02/24 03:36:59;;;;;;;2.38;1.90;;;;;;;6.26;100.00;99343.81;5110962;28;20050;-67
2024/02/24 03:39:47;;;;;;;2.53;1.90;;;;;;;6.26;100.00;99351.13;5077196;28;20051;-66
2024/02/24 03:42:35;;;;;;;2.72;1.60;;;;;;;6.26;100.00;99351.13;5078145;28;20153;-65
2024/02/24 03:45:23;;;;;;;2.55;1.70;;;;;;;6.27;100.00;99344.59;5099456;28;20157;-66
2024/02/24 03:48:11;;;;;;;2.72;1.70;;;;;;;6.26;100.00;99343.81;5107458;28;20122;-66
2024/02/24 03:51:00;;;;;;;1.80;1.63;;;;;;;6.25;100.00;99349.47;5122566;28;20051;-64
2024/02/24 03:53:48;;;;;;;2.63;1.75;;;;;;;6.25;100.00;99354.88;5119833;28;20107;-64
2024/02/24 03:56:36;;;;;;;2.00;1.58;;;;;;;6.25;100.00;99350.28;5105706;28;20103;-67
2024/02/24 03:59:24;;;;;;;3.10;2.00;;;;;;;6.25;100.00;99350.28;5111641;27;20057;-68
2024/02/24 04:02:12;;;;;;;3.35;1.77;;;;;;;6.28;100.00;99349.75;5120841;27;20108;-68
2024/02/24 04:05:00;;;;;;;2.00;1.63;;;;;;;6.29;100.00;99354.06;5115658;28;20058;-67
2024/02/24 04:07:48;;;;;;;1.52;1.40;;;;;;;6.28;100.00;99355.16;5097392;28;20039;-68
2024/02/24 04:10:36;;;;;;;2.63;1.80;;;;;;;6.25;100.00;99355.69;5110893;27;20051;-67
2024/02/24 04:13:24;;;;;;;3.47;1.92;;;;;;;6.19;100.00;99356.81;5083453;28;20051;-68
2024/02/24 04:16:12;;;;;;;1.92;1.70;;;;;;;6.19;100.00;99351.41;5102870;27;20077;-67
2024/02/24 04:19:01;;;;;;;3.28;1.83;;;;;;;6.19;100.00;99352.19;5114690;28;20118;-68
2024/02/24 04:21:49;;;;;;;2.63;1.65;;;;;;;6.19;100.00;99362.22;5096641;28;20036;-68
2024/02/24 04:24:37;;;;;;;2.97;1.70;;;;;;;6.16;100.00;99363.59;5111444;28;20047;-68
2024/02/24 04:27:25;;;;;;;2.55;1.80;;;;;;;6.16;100.00;99368.19;5112360;28;20043;-68
2024/02/24 04:30:13;;;;;;;2.97;1.80;;;;;;;6.18;100.00;99371.41;5123972;27;20442;-68
2024/02/24 04:33:01;;;;;;;2.35;1.60;;;;;;;6.21;100.00;99376.28;5116129;28;20056;-68
2024/02/24 04:35:50;;;;;;;2.63;1.63;;;;;;;6.21;100.00;99376.28;5101423;28;20112;-68
2024/02/24 04:38:38;;;;;;;2.05;1.70;;;;;;;6.23;100.00;99384.09;5133894;27;20495;-68
2024/02/24 04:41:26;;;;;;;1.92;1.60;;;;;;;6.22;100.00;99388.72;5106419;28;20093;-68
2024/02/24 04:44:14;;;;;;;2.10;1.52;;;;;;;6.23;100.00;99393.03;5116922;28;20511;-68
2024/02/24 04:47:02;;;;;;;2.22;1.65;;;;;;;6.24;100.00;99397.38;5101083;28;20195;-68
2024/02/24 04:49:51;;;;;;;2.97;1.90;;;;;;;6.23;100.00;99403.03;5114932;28;20075;-68
2024/02/24 04:52:39;;;;;;;2.20;1.65;;;;;;;6.24;100.00;99408.19;5098107;28;20046;-68
2024/02/24 04:55:27;;;;;;;3.35;1.67;;;;;;;6.26;100.00;99411.41;5067056;28;20051;-67
2024/02/24 04:58:15;;;;;;;1.67;1.45;;;;;;;6.26;100.00;99408.72;5109467;28;20408;-67
2024/02/24 05:01:03;;;;;;;2.03;1.50;;;;;;;6.27;100.00;99410.31;5113035;28;20115;-67
2024/02/24 05:03:51;;;;;;;2.40;1.60;;;;;;;6.29;100.00;99410.06;5094218;28;20495;-67
2024/02/24 05:06:39;;;;;;;2.22;1.58;;;;;;;6.26;100.00;99414.13;5114149;27;20061;-67
2024/02/24 05:09:27;;;;;;;2.28;1.42;;;;;;;6.26;100.00;99416.03;5136035;27;20035;-67
2024/02/24 05:12:16;;;;;;;2.45;1.60;;;;;;;6.24;100.00;99407.38;5127759;27;20051;-67
2024/02/24 05:15:04;;;;;;;3.30;1.60;;;;;;;6.24;100.00;99419.00;5086704;28;20048;-69
2024/02/24 05:17:52;;;;;;;3.10;1.98;;;;;;;6.17;100.00;99418.47;5115784;28;20602;-68
2024/02/24 05:20:41;;;;;;;5.53;1.95;;;;;;;6.11;100.00;99412.28;5121854;27;20047;-67
2024/02/24 05:23:29;;;;;;;3.53;1.75;;;;;;;6.10;100.00;99417.94;5105175;28;20136;-67
2024/02/24 05:26:24;;;;;;;2.72;1.70;;;;;;;6.12;100.00;99421.19;5101803;27;20050;-67
2024/02/24 05:29:14;;;;;;;3.30;1.80;;;;;;;6.16;100.00;99416.88;5134983;27;20059;-67
2024/02/24 05:32:02;;;;;;;3.00;1.60;;;;;;;6.20;100.00;99428.72;5109428;27;20040;-68
2024/02/24 05:34:50;;;;;;;2.78;1.67;;;;;;;6.25;100.00;99433.31;5113181;28;20134;-70
2024/02/24 05:37:38;;;;;;;2.40;2.03;;;;;;;6.20;100.00;99431.44;5115137;28;20043;-67
2024/02/24 05:40:26;;;;;;;4.55;1.98;;;;;;;6.15;100.00;99431.44;5100296;28;20195;-68
2024/02/24 05:43:14;;;;;;;4.63;2.00;;;;;;;6.12;100.00;99430.09;5110651;27;20049;-67
2024/02/24 05:46:09;;;;;;;3.17;1.90;;;;;;;6.08;100.00;99437.13;5110818;28;20173;-68
2024/02/24 05:48:56;;;;;;;3.20;1.77;;;;;;;6.14;100.00;99435.25;5086854;28;20047;-68
2024/02/24 05:51:45;;;;;;;3.00;1.55;;;;;;;6.19;100.00;99436.03;5102322;27;20203;-68
2024/02/24 05:54:32;;;;;;;3.38;1.75;;;;;;;6.25;100.00;99438.72;5092231;27;20487;-68
2024/02/24 05:57:21;;;;;;;3.25;1.55;;;;;;;6.24;100.00;99443.34;5099503;28;20054;-67
2024/02/24 06:00:11;;;;;;;3.17;1.65;;;;;;;6.28;100.00;99446.31;5114595;28;20043;-68
2024/02/24 06:02:59;;;;;;;3.42;1.90;;;;;;;6.28;100.00;99455.25;5113308;28;20139;-68
2024/02/24 06:05:47;;;;;;;3.13;1.63;;;;;;;6.28;100.00;99454.44;5110131;27;20050;-68
2024/02/24 06:08:35;;;;;;;3.05;1.90;;;;;;;6.29;100.00;99456.84;5096062;28;20120;-67
2024/02/24 06:11:23;;;;;;;3.28;1.90;;;;;;;6.28;100.00;99457.94;5111317;28;20054;-68
2024/02/24 06:14:13;;;;;;;3.03;1.70;;;;;;;6.28;100.00;99460.66;5111417;27;20499;-68
2024/02/24 06:17:01;;;;;;;2.25;1.80;;;;;;;6.27;100.00;99467.13;5115400;27;20047;-67
2024/02/24 06:19:49;;;;;;;3.63;1.55;;;;;;;6.29;100.00;99464.97;5088017;28;20055;-68
2024/02/24 06:22:37;;;;;;;4.35;2.05;;;;;;;6.29;100.00;99459.56;5113755;27;20046;-67
2024/02/24 06:25:25;;;;;;;4.65;1.80;;;;;;;6.32;100.00;99469.81;5103492;28;20139;-67
2024/02/24 06:28:14;;;;;;;3.90;1.80;;;;;;;6.29;100.00;99467.66;5113108;28;20052;-67
2024/02/24 06:31:03;;;;;;;2.60;1.95;;;;;;;6.28;100.00;99463.34;5113031;28;20040;-68
2024/02/24 06:33:51;;;;;;;3.42;2.03;;;;;;;6.27;100.00;99480.66;5074082;28;20044;-68
2024/02/24 06:36:40;;;;;;;2.70;1.83;;;;;;;6.26;100.00;99479.03;5099607;27;20400;-68
2024/02/24 06:39:27;;;;;;;2.80;2.00;;;;;;;6.25;100.00;99482.81;5104084;28;20059;-68
2024/02/24 06:42:15;;;;;;;4.57;2.30;;;;;;;6.26;100.00;99486.34;5095288;28;20075;-67
2024/02/24 06:45:04;;;;;;;4.45;2.45;;;;;;;6.13;100.00;99485.00;5104499;27;20047;-68
2024/02/24 06:47:52;;;;;;;2.70;2.20;;;;;;;6.08;100.00;99482.28;5093618;27;20180;-68
2024/02/24 06:50:40;;;;;;;4.95;2.53;;;;;;;6.05;100.00;99485.53;5100560;28;20430;-68
2024/02/24 06:53:28;;;;;;;3.90;2.22;;;;;;;6.01;100.00;99493.38;5111156;28;20046;-68
2024/02/24 06:56:20;;;;;;;6.53;2.30;;;;;;;5.99;100.00;99495.56;5086290;28;20135;-68
2024/02/24 06:59:09;;;;;;;4.97;2.40;;;;;;;6.01;100.00;99495.28;5078525;28;20058;-69
2024/02/24 07:01:57;;;;;;;4.32;2.30;;;;;;;6.00;100.00;99504.47;5078115;28;20055;-67
2024/02/24 07:04:45;;;;;;;4.40;2.35;;;;;;;6.00;100.00;99502.59;5093034;28;20511;-68
2024/02/24 07:07:34;;;;;;;5.63;2.20;;;;;;;6.01;100.00;99508.78;5076813;28;20170;-68
2024/02/24 07:10:22;;;;;;;6.22;2.60;;;;;;;6.01;100.00;99522.31;5077516;28;20420;-68
2024/02/24 07:13:10;;;;;;;4.03;2.30;;;;;;;6.00;100.00;99518.00;5092720;28;20131;-68
2024/02/24 07:15:58;;;;;;;4.97;2.53;;;;;;;6.00;100.00;99515.28;5106786;28;20480;-69
2024/02/24 07:18:46;;;;;;;3.03;2.13;;;;;;;6.00;100.00;99526.09;5108325;27;20031;-68
2024/02/24 07:21:34;;;;;;;3.63;2.13;;;;;;;6.04;100.00;99519.06;5098762;27;20047;-68
2024/02/24 07:24:22;;;;;;;4.03;2.33;;;;;;;6.04;100.00;99525.31;5118581;27;20043;-68
2024/02/24 07:27:10;;;;;;;4.40;2.40;;;;;;;6.06;100.00;99535.81;5123061;27;20525;-69
2024/02/24 07:30:00;;;;;;;4.45;2.50;;;;;;;6.09;100.00;99538.00;5084055;28;20055;-69
2024/02/24 07:32:48;;;;;;;4.32;2.35;;;;;;;6.11;100.00;99535.81;5112331;28;20495;-69
2024/02/24 07:35:36;;;;;;;5.22;2.30;;;;;;;6.08;100.00;99539.06;5098777;28;20067;-68
2024/02/24 07:38:24;;;;;;;5.18;2.58;;;;;;;6.09;100.00;99538.81;5082992;28;20044;-68
2024/02/24 07:41:12;;;;;;;4.20;2.30;;;;;;;6.09;100.00;99541.53;5115588;27;20522;-68
2024/02/24 07:44:03;;;;;;;4.07;2.28;;;;;;;6.09;100.00;99551.53;5099078;27;20043;-69
2024/02/24 07:46:52;;;;;;;6.20;2.67;;;;;;;6.07;100.00;99559.09;5084244;28;20046;-68
2024/02/24 07:49:40;;;;;;;3.35;2.22;;;;;;;6.04;100.00;99565.03;5113683;27;20043;-69
2024/02/24 07:52:28;;;;;;;4.35;2.22;;;;;;;6.04;100.00;99559.63;5118678;27;20046;-69
2024/02/24 07:55:18;;;;;;;7.00;2.20;;;;;;;6.06;100.00;99562.88;5132386;27;20047;-69
2024/02/24 07:58:06;;;;;;;4.03;2.10;;;;;;;6.13;100.00;99563.41;5112735;28;20051;-68
2024/02/24 08:00:54;;;;;;;4.57;2.55;;;;;;;6.13;100.00;99564.25;5132844;28;20028;-68
2024/02/24 08:03:42;;;;;;;4.28;2.55;;;;;;;6.15;100.00;99563.97;5121110;28;20039;-68
2024/02/24 08:06:31;;;;;;;3.55;2.58;;;;;;;6.19;100.00;99570.47;5102648;28;20036;-69
2024/02/24 08:09:19;;;;;;;5.30;2.65;;;;;;;6.21;100.00;99570.19;5100678;28;20069;-67
2024/02/24 08:12:08;;;;;;;3.83;2.45;;;;;;;6.21;100.00;99579.13;5108055;28;20055;-68
2024/02/24 08:14:56;;;;;;;8.52;2.80;;;;;;;6.24;100.00;99581.28;5119447;28;20124;-67
2024/02/24 08:17:44;;;;;;;4.80;2.40;;;;;;;6.27;100.00;99586.13;5115068;28;20516;-68
2024/02/24 08:20:32;;;;;;;5.07;2.50;;;;;;;6.28;100.00;99595.91;5114373;28;20060;-69
2024/02/24 08:23:23;;;;;;;8.25;3.00;;;;;;;6.25;100.00;99593.72;5114257;28;20040;-69
2024/02/24 08:26:11;;;;;;;4.28;2.50;;;;;;;6.25;100.00;99601.81;5083639;28;20057;-68
2024/02/24 08:28:59;;;;;;;5.53;2.65;;;;;;;6.22;100.00;99598.84;5077003;28;20459;-67
2024/02/24 08:31:48;;;;;;;5.65;2.65;;;;;;;6.26;100.00;99602.66;5091730;28;20116;-67
2024/02/24 08:34:36;;;;;;;3.58;2.13;;;;;;;6.27;100.00;99612.38;5087605;28;20043;-68
2024/02/24 08:37:24;;;;;;;3.47;2.03;;;;;;;6.07;100.00;99627.50;5076570;28;20051;-68
2024/02/24 08:40:13;;;;;;;3.25;2.40;;;;;;;5.92;100.00;99627.44;5075597;28;20452;-67
2024/02/24 08:43:01;;;;;;;5.25;2.55;;;;;;;5.85;100.00;99625.00;5097652;28;20043;-68
2024/02/24 08:45:49;;;;;;;3.58;2.55;;;;;;;5.86;100.00;99634.72;5082416;28;20054;-67
2024/02/24 08:48:37;;;;;;;5.38;2.70;;;;;;;5.84;100.00;99644.16;5112104;28;20048;-67
2024/02/24 08:51:26;;;;;;;5.93;2.75;;;;;;;5.84;100.00;99644.97;5083850;28;20048;-67
2024/02/24 08:54:20;;;;;;;5.05;2.72;;;;;;;5.80;100.00;99649.31;5097426;28;20046;-67
2024/02/24 08:57:08;;;;;;;3.60;2.67;;;;;;;5.79;100.00;99658.47;5070476;28;20043;-67
2024/02/24 08:59:56;;;;;;;4.32;2.75;;;;;;;5.83;100.00;99666.88;5096482;28;20104;-68
2024/02/24 09:02:45;;;;;;;2.63;2.40;;;;;;;5.80;100.00;99662.81;5111644;28;20416;-68
2024/02/24 09:05:33;;;;;;;6.55;2.83;;;;;;;5.86;100.00;99664.44;5110440;28;20043;-68
2024/02/24 09:08:21;;;;;;;6.22;3.30;;;;;;;5.84;100.00;99658.50;5076754;28;20128;-68
2024/02/24 09:11:09;;;;;;;5.82;3.17;;;;;;;5.83;100.00;99673.09;5082251;28;20047;-68
2024/02/24 09:13:58;;;;;;;5.10;3.03;;;;;;;5.80;100.00;99670.94;5090457;28;20401;-67
2024/02/24 09:16:46;;;;;;;6.35;3.38;;;;;;;5.78;100.00;99681.19;5103208;27;20069;-68
2024/02/24 09:19:34;;;;;;;7.38;3.28;;;;;;;5.77;100.00;99684.94;5115258;28;20415;-68
2024/02/24 09:22:22;;;;;;;6.68;3.40;;;;;;;5.74;100.00;99686.28;5096969;27;20154;-68
2024/02/24 09:25:14;;;;;;;5.70;3.15;;;;;;;5.74;100.00;99688.19;5096181;28;20079;-68
2024/02/24 09:28:02;;;;;;;5.10;2.88;;;;;;;5.75;100.00;99693.34;5088564;28;20083;-68
2024/02/24 09:30:51;;;;;;;5.53;3.20;;;;;;;5.75;100.00;99697.94;5114301;28;20043;-67
2024/02/24 09:33:39;;;;;;;6.22;3.22;;;;;;;5.76;100.00;99694.16;5098914;27;20031;-68
2024/02/24 09:36:27;;;;;;;5.75;3.20;;;;;;;5.76;100.00;99699.56;5120813;27;20072;-69
2024/02/24 09:39:16;;;;;;;6.18;3.60;;;;;;;5.73;100.00;99705.50;5118391;27;20047;-68
2024/02/24 09:42:05;;;;;;;6.05;3.40;;;;;;;5.71;100.00;99707.66;5079554;28;20055;-67
2024/02/24 09:44:58;;;;;;;5.35;2.97;;;;;;;5.75;100.00;99714.16;5076502;28;20055;-69
2024/02/24 09:47:46;;;;;;;6.50;3.30;;;;;;;5.79;100.00;99715.25;5080250;28;20051;-68
2024/02/24 09:50:34;;;;;;;5.05;3.17;;;;;;;5.81;100.00;99715.78;5079140;28;20051;-69
2024/02/24 09:53:22;;;;;;;7.28;3.83;;;;;;;5.80;100.00;99711.47;5095574;27;20101;-68
2024/02/24 09:56:11;;;;;;;6.18;3.55;;;;;;;5.84;100.00;99717.16;5080496;28;20097;-67
2024/02/24 09:58:59;;;;;;;6.53;3.15;;;;;;;5.83;100.00;99721.75;5078920;28;20051;-68
2024/02/24 10:01:48;;;;;;;6.28;3.05;;;;;;;5.82;100.00;99720.13;5080411;28;20052;-68
2024/02/24 10:04:36;;;;;;;6.57;3.22;;;;;;;5.84;100.00;99727.97;5101255;27;20039;-68
2024/02/24 10:07:26;;;;;;;4.93;2.88;;;;;;;5.88;100.00;99726.38;5122154;27;20115;-69
2024/02/24 10:10:16;;;;;;;6.95;3.40;;;;;;;5.86;100.00;99733.94;5105845;28;20055;-68
2024/02/24 10:13:04;;;;;;;5.28;3.13;;;;;;;5.88;100.00;99739.88;5098902;28;20426;-68
2024/02/24 10:15:52;;;;;;;5.50;2.80;;;;;;;5.90;100.00;99740.44;5079689;28;20044;-68
2024/02/24 10:18:40;;;;;;;6.55;3.20;;;;;;;5.94;100.00;99744.25;5132550;27;20046;-68
2024/02/24 10:21:29;;;;;;;7.65;3.30;;;;;;;5.96;100.00;99751.06;5095833;28;20042;-68
2024/02/24 10:24:18;;;;;;;6.57;2.78;;;;;;;6.02;100.00;99748.38;5099030;28;20180;-68
2024/02/24 10:27:06;;;;;;;4.22;2.97;;;;;;;6.07;100.00;99742.97;5113945;28;20522;-67
2024/02/24 10:29:55;;;;;;;7.05;3.15;;;;;;;6.15;100.00;99745.16;5101696;28;20157;-67
2024/02/24 10:32:44;;;;;;;6.78;3.63;;;;;;;6.16;100.00;99752.22;5115048;28;20044;-68
2024/02/24 10:35:32;;;;;;;5.90;3.05;;;;;;;6.15;100.00;99754.06;5071958;28;20059;-68
2024/02/24 10:38:21;;;;;;;4.68;2.80;;;;;;;6.18;100.00;99753.56;5096200;28;20055;-67
2024/02/24 10:41:23;;;;;;;4.32;2.80;;;;;;;6.24;100.00;99748.16;5113415;28;20047;-67
2024/02/24 10:44:15;;;;;;;7.95;2.80;;;;;;;6.28;100.00;99752.78;5114311;28;20499;-68
2024/02/24 10:47:11;;;;;;;7.10;3.25;;;;;;;6.32;100.00;99750.34;5087839;28;20044;-68
2024/02/24 10:49:59;;;;;;;5.53;2.90;;;;;;;6.35;100.00;99760.63;5098855;28;20054;-68
2024/02/24 10:52:48;;;;;;;4.22;2.42;;;;;;;6.35;100.00;99755.22;5113653;27;20122;-68
2024/02/24 10:55:37;;;;;;;4.15;2.33;;;;;;;6.35;100.00;99766.88;5108685;28;20501;-67
2024/02/24 10:58:25;;;;;;;8.20;2.70;;;;;;;6.37;100.00;99763.88;5112540;28;20138;-68
2024/02/24 11:01:14;;;;;;;6.32;2.60;;;;;;;6.34;100.00;99778.75;5113224;28;20535;-69
2024/02/24 11:04:02;;;;;;;3.40;2.08;;;;;;;6.37;100.00;99775.53;5072238;28;20051;-68
2024/02/24 11:06:51;;;;;;;4.40;2.15;;;;;;;6.48;100.00;99770.97;5077582;28;20059;-68
2024/02/24 11:09:40;;;;;;;9.02;2.45;;;;;;;6.54;100.00;99772.63;5077626;28;20071;-67
2024/02/24 11:12:28;;;;;;;3.05;1.83;;;;;;;6.55;100.00;99776.13;5097448;28;20054;-67
2024/02/24 11:15:23;;;;;;;5.93;2.40;;;;;;;6.54;100.00;99779.91;5097765;28;20047;-66
2024/02/24 11:18:11;;;;;;;7.10;2.20;;;;;;;6.58;100.00;99786.41;5113146;28;20054;-67
2024/02/24 11:20:59;;;;;;;6.47;2.50;;;;;;;6.60;100.00;99795.06;5097571;28;20487;-67
2024/02/24 11:23:49;;;;;;;5.78;2.30;;;;;;;6.57;100.00;99784.78;5099267;28;20118;-67
2024/02/24 11:26:37;;;;;;;7.25;2.30;;;;;;;6.56;100.00;99786.66;5099341;28;20044;-67
2024/02/24 11:29:27;;;;;;;7.00;2.40;;;;;;;6.60;100.00;99786.97;5084719;28;20051;-68
2024/02/24 11:32:16;;;;;;;6.50;2.60;;;;;;;6.77;100.00;99789.44;5113927;28;20055;-69
2024/02/24 11:35:04;;;;;;;6.97;2.40;;;;;;;7.03;100.00;99793.00;5099093;28;20070;-67
2024/02/24 11:37:53;;;;;;;6.13;2.47;;;;;;;7.24;100.00;99796.53;5098490;28;20044;-67
2024/02/24 11:40:46;;;;;;;7.32;2.97;;;;;;;7.23;100.00;99798.41;5099416;28;20055;-68
2024/02/24 11:43:34;;;;;;;5.07;2.53;;;;;;;7.02;100.00;99804.88;5114422;28;20465;-68
2024/02/24 11:46:22;;;;;;;5.53;2.55;;;;;;;6.95;100.00;99807.88;5112992;28;20184;-69
2024/02/24 11:49:11;;;;;;;6.68;2.58;;;;;;;6.87;100.00;99804.88;5097241;28;20051;-67
2024/02/24 11:51:59;;;;;;;8.73;3.45;;;;;;;6.82;100.00;99811.09;5094632;28;20042;-71
2024/02/24 11:54:47;;;;;;;10.50;3.95;;;;;;;6.74;100.00;99806.22;5111549;28;20068;-72
2024/02/24 11:57:36;;;;;;;9.90;3.95;;;;;;;6.70;100.00;99805.13;5084436;28;20048;-71
2024/02/24 12:00:25;;;;;;;10.15;3.08;;;;;;;6.64;100.00;99817.84;5079256;28;20056;-74
2024/02/24 12:03:13;;;;;;;4.85;2.50;;;;;;;6.60;100.00;99822.94;5097182;28;20040;-68
2024/02/24 12:06:03;;;;;;;4.55;2.42;;;;;;;6.56;100.00;99821.03;5082852;28;20039;-72
2024/02/24 12:08:52;;;;;;;6.93;2.72;;;;;;;6.59;100.00;99824.03;5083714;28;20039;-72
2024/02/24 12:11:40;;;;;;;8.38;2.47;;;;;;;6.66;100.00;99829.19;5094518;27;20047;-72
2024/02/24 12:14:32;;;;;;;6.38;2.80;;;;;;;6.61;100.00;99837.28;5133974;27;20031;-72
2024/02/24 12:17:20;;;;;;;5.43;2.60;;;;;;;6.63;100.00;99832.44;5136936;27;20084;-69
2024/02/24 12:20:09;;;;;;;4.88;2.20;;;;;;;6.62;100.00;99828.09;5127638;28;20046;-72
2024/02/24 12:23:04;;;;;;;7.65;2.75;;;;;;;6.63;100.00;99827.00;5098558;28;20031;-72
2024/02/24 12:25:52;;;;;;;5.25;2.28;;;;;;;6.67;100.00;99817.28;5103867;28;20110;-72
2024/02/24 12:28:41;;;;;;;5.63;2.22;;;;;;;6.68;100.00;99824.31;5119676;28;20039;-71
2024/02/24 12:31:30;;;;;;;4.78;2.42;;;;;;;6.65;100.00;99837.59;5100979;28;20047;-72
2024/02/24 12:34:18;;;;;;;7.15;2.40;;;;;;;6.62;100.00;99830.81;5099825;28;20071;-72
2024/02/24 12:37:07;;;;;;;6.55;2.30;;;;;;;6.64;100.00;99831.38;5069847;28;20040;-72
2024/02/24 12:39:55;;;;;;;7.97;2.38;;;;;;;6.65;100.00;99826.75;5112724;28;20047;-72
2024/02/24 12:42:43;;;;;;;5.32;2.17;;;;;;;6.67;100.00;99833.53;5110464;28;20039;-72
2024/02/24 12:45:31;;;;;;;10.65;2.70;;;;;;;6.74;100.00;99834.09;5113149;28;20548;-72
2024/02/24 12:48:20;;;;;;;6.55;2.35;;;;;;;6.74;100.00;99844.91;5098475;28;20047;-72
2024/02/24 12:51:08;;;;;;;8.27;2.80;;;;;;;6.78;100.00;99847.91;5079725;27;20065;-71
2024/02/24 12:53:56;;;;;;;5.07;2.20;;;;;;;6.73;100.00;99843.28;5086882;28;20051;-71
2024/02/24 12:56:44;;;;;;;5.72;2.40;;;;;;;6.74;100.00;99850.34;5113765;27;20039;-72
2024/02/24 12:59:33;;;;;;;3.85;2.22;;;;;;;6.69;100.00;99842.19;5095959;28;20039;-71
2024/02/24 13:02:21;;;;;;;7.35;2.83;;;;;;;6.71;100.00;99855.47;5136277;27;20039;-72
2024/02/24 13:05:09;;;;;;;7.03;2.55;;;;;;;6.70;100.00;99845.72;5113480;27;20043;-71
2024/02/24 13:07:58;;;;;;;4.47;2.30;;;;;;;6.70;100.00;99849.22;5110798;28;20067;-71
2024/02/24 13:10:46;;;;;;;6.80;2.30;;;;;;;6.71;100.00;99850.03;5097214;28;20047;-70
2024/02/24 13:13:34;;;;;;;6.20;2.40;;;;;;;6.72;100.00;99852.50;5068211;28;20123;-71